sensor_id;sensor_type;location;lat;lon;timestamp;pressure;altitude;pressure_sealevel;temperature;humidity
30618;BME280;17384;51.214;9.202;2022-12-04T00:01:44;98821.25;;;-1.56;85.04
30618;BME280;17384;51.214;9.202;2022-12-04T00:04:09;98829.50;;;-1.49;84.84
30618;BME280;17384;51.214;9.202;2022-12-04T00:06:35;98815.22;;;-1.58;85.06
30618;BME280;17384;51.214;9.202;2022-12-04T00:09:01;98817.59;;;-1.55;85.08
30618;BME280;17384;51.214;9.202;2022-12-04T00:11:29;98815.94;;;-1.56;84.84
30618;BME280;17384;51.214;9.202;2022-12-04T00:13:55;98812.84;;;-1.61;84.99
30618;BME280;17384;51.214;9.202;2022-12-04T00:16:25;98815.63;;;-1.62;85.51
30618;BME280;17384;51.214;9.202;2022-12-04T00:18:52;98803.19;;;-1.52;84.66
30618;BME280;17384;51.214;9.202;2022-12-04T00:21:18;98813.56;;;-1.49;84.79
30618;BME280;17384;51.214;9.202;2022-12-04T00:23:45;98810.19;;;-1.51;84.70
30618;BME280;17384;51.214;9.202;2022-12-04T00:26:16;98799.13;;;-1.56;84.44
30618;BME280;17384;51.214;9.202;2022-12-04T00:28:43;98801.81;;;-1.47;84.44
30618;BME280;17384;51.214;9.202;2022-12-04T00:31:14;98805.88;;;-1.43;84.32
30618;BME280;17384;51.214;9.202;2022-12-04T00:33:41;98797.03;;;-1.53;84.63
30618;BME280;17384;51.214;9.202;2022-12-04T00:36:08;98798.72;;;-1.52;84.71
30618;BME280;17384;51.214;9.202;2022-12-04T00:38:35;98787.91;;;-1.60;84.46
30618;BME280;17384;51.214;9.202;2022-12-04T00:41:01;98787.22;;;-1.62;84.59
30618;BME280;17384;51.214;9.202;2022-12-04T00:43:28;98786.38;;;-1.62;84.93
30618;BME280;17384;51.214;9.202;2022-12-04T00:45:55;98787.53;;;-1.65;85.37
30618;BME280;17384;51.214;9.202;2022-12-04T00:48:21;98783.44;;;-1.59;85.60
30618;BME280;17384;51.214;9.202;2022-12-04T00:50:46;98779.22;;;-1.62;85.62
30618;BME280;17384;51.214;9.202;2022-12-04T00:53:12;98769.88;;;-1.56;85.08
30618;BME280;17384;51.214;9.202;2022-12-04T00:55:39;98773.09;;;-1.43;84.45
30618;BME280;17384;51.214;9.202;2022-12-04T00:58:05;98757.28;;;-1.45;84.38
30618;BME280;17384;51.214;9.202;2022-12-04T01:00:33;98771.41;;;-1.44;84.46
30618;BME280;17384;51.214;9.202;2022-12-04T01:02:59;98766.78;;;-1.42;84.49
30618;BME280;17384;51.214;9.202;2022-12-04T01:05:24;98779.81;;;-1.39;84.28
30618;BME280;17384;51.214;9.202;2022-12-04T01:07:50;98786.97;;;-1.40;84.25
30618;BME280;17384;51.214;9.202;2022-12-04T01:10:15;98777.13;;;-1.29;83.34
30618;BME280;17384;51.214;9.202;2022-12-04T01:12:41;98775.59;;;-1.32;83.42
30618;BME280;17384;51.214;9.202;2022-12-04T01:15:07;98776.72;;;-1.34;83.52
30618;BME280;17384;51.214;9.202;2022-12-04T01:17:32;98778.25;;;-1.32;83.44
30618;BME280;17384;51.214;9.202;2022-12-04T01:19:57;98781.09;;;-1.43;83.67
30618;BME280;17384;51.214;9.202;2022-12-04T01:22:23;98772.53;;;-1.37;83.58
30618;BME280;17384;51.214;9.202;2022-12-04T01:24:48;98770.41;;;-1.33;83.50
30618;BME280;17384;51.214;9.202;2022-12-04T01:27:14;98786.13;;;-1.40;83.97
30618;BME280;17384;51.214;9.202;2022-12-04T01:29:39;98781.63;;;-1.30;83.65
30618;BME280;17384;51.214;9.202;2022-12-04T01:32:05;98787.78;;;-1.29;83.78
30618;BME280;17384;51.214;9.202;2022-12-04T01:34:30;98785.84;;;-1.37;83.65
30618;BME280;17384;51.214;9.202;2022-12-04T01:36:56;98775.19;;;-1.37;83.50
30618;BME280;17384;51.214;9.202;2022-12-04T01:39:21;98779.13;;;-1.41;83.40
30618;BME280;17384;51.214;9.202;2022-12-04T01:41:47;98765.81;;;-1.41;83.29
30618;BME280;17384;51.214;9.202;2022-12-04T01:44:21;98774.34;;;-1.28;83.21
30618;BME280;17384;51.214;9.202;2022-12-04T01:46:56;98770.97;;;-1.30;83.29
30618;BME280;17384;51.214;9.202;2022-12-04T01:49:42;98779.38;;;-1.25;83.51
30618;BME280;17384;51.214;9.202;2022-12-04T01:52:15;98772.09;;;-1.23;83.56
30618;BME280;17384;51.214;9.202;2022-12-04T01:54:46;98761.44;;;-1.32;83.06
30618;BME280;17384;51.214;9.202;2022-12-04T01:57:16;98761.59;;;-1.24;83.00
30618;BME280;17384;51.214;9.202;2022-12-04T01:59:47;98766.78;;;-1.23;82.81
30618;BME280;17384;51.214;9.202;2022-12-04T02:02:17;98763.97;;;-1.21;82.86
30618;BME280;17384;51.214;9.202;2022-12-04T02:04:44;98778.25;;;-1.22;82.90
30618;BME280;17384;51.214;9.202;2022-12-04T02:07:11;98770.00;;;-1.29;83.25
30618;BME280;17384;51.214;9.202;2022-12-04T02:09:37;98762.00;;;-1.29;83.38
30618;BME280;17384;51.214;9.202;2022-12-04T02:12:32;98755.72;;;-1.28;83.12
30618;BME280;17384;51.214;9.202;2022-12-04T02:27:05;98756.69;;;-1.29;83.36
30618;BME280;17384;51.214;9.202;2022-12-04T02:29:38;98751.69;;;-1.42;83.84
30618;BME280;17384;51.214;9.202;2022-12-04T02:35:09;98748.69;;;-1.29;83.50
30618;BME280;17384;51.214;9.202;2022-12-04T02:37:37;98743.53;;;-1.30;83.01
30618;BME280;17384;51.214;9.202;2022-12-04T02:40:07;98736.09;;;-1.27;83.38
30618;BME280;17384;51.214;9.202;2022-12-04T02:43:07;98724.47;;;-1.36;83.63
30618;BME280;17384;51.214;9.202;2022-12-04T02:45:29;98734.28;;;-1.36;83.89
30618;BME280;17384;51.214;9.202;2022-12-04T02:47:57;98724.75;;;-1.19;83.38
30618;BME280;17384;51.214;9.202;2022-12-04T02:50:25;98718.16;;;-1.25;83.07
30618;BME280;17384;51.214;9.202;2022-12-04T02:53:11;98719.97;;;-1.16;82.97
30618;BME280;17384;51.214;9.202;2022-12-04T02:55:42;98733.56;;;-1.28;82.99
30618;BME280;17384;51.214;9.202;2022-12-04T02:58:14;98714.41;;;-1.32;83.46
30618;BME280;17384;51.214;9.202;2022-12-04T03:00:43;98735.81;;;-1.33;83.68
30618;BME280;17384;51.214;9.202;2022-12-04T03:03:14;98731.47;;;-1.34;83.97
30618;BME280;17384;51.214;9.202;2022-12-04T03:05:59;98720.13;;;-1.27;84.08
30618;BME280;17384;51.214;9.202;2022-12-04T03:08:48;98739.31;;;-1.23;83.78
30618;BME280;17384;51.214;9.202;2022-12-04T03:11:15;98732.47;;;-1.26;84.10
30618;BME280;17384;51.214;9.202;2022-12-04T03:13:58;98748.84;;;-1.21;83.29
30618;BME280;17384;51.214;9.202;2022-12-04T03:16:28;98746.03;;;-1.19;83.43
30618;BME280;17384;51.214;9.202;2022-12-04T03:18:59;98748.28;;;-1.15;83.01
30618;BME280;17384;51.214;9.202;2022-12-04T03:21:32;98750.53;;;-1.20;83.10
30618;BME280;17384;51.214;9.202;2022-12-04T03:24:12;98747.00;;;-1.11;82.96
30618;BME280;17384;51.214;9.202;2022-12-04T03:26:55;98750.25;;;-1.17;83.44
30618;BME280;17384;51.214;9.202;2022-12-04T03:32:26;98752.34;;;-1.11;83.41
30618;BME280;17384;51.214;9.202;2022-12-04T03:35:04;98753.47;;;-1.23;84.06
30618;BME280;17384;51.214;9.202;2022-12-04T03:37:42;98760.88;;;-1.17;84.21
30618;BME280;17384;51.214;9.202;2022-12-04T03:42:46;98746.59;;;-1.16;83.77
30618;BME280;17384;51.214;9.202;2022-12-04T03:45:47;98760.75;;;-1.25;84.47
30618;BME280;17384;51.214;9.202;2022-12-04T03:48:23;98758.31;;;-1.09;83.85
30618;BME280;17384;51.214;9.202;2022-12-04T03:51:15;98767.59;;;-1.13;83.97
30618;BME280;17384;51.214;9.202;2022-12-04T03:56:51;98747.69;;;-1.09;83.91
30618;BME280;17384;51.214;9.202;2022-12-04T04:00:20;98753.00;;;-1.09;83.52
30618;BME280;17384;51.214;9.202;2022-12-04T04:06:14;98749.06;;;-1.05;83.98
30618;BME280;17384;51.214;9.202;2022-12-04T04:08:57;98748.53;;;-1.08;83.99
30618;BME280;17384;51.214;9.202;2022-12-04T04:11:47;98753.59;;;-1.15;84.25
30618;BME280;17384;51.214;9.202;2022-12-04T04:14:21;98753.88;;;-1.27;84.46
30618;BME280;17384;51.214;9.202;2022-12-04T04:17:22;98754.72;;;-1.27;85.16
30618;BME280;17384;51.214;9.202;2022-12-04T04:23:58;98750.25;;;-1.17;84.57
30618;BME280;17384;51.214;9.202;2022-12-04T04:26:48;98745.03;;;-1.09;84.56
30618;BME280;17384;51.214;9.202;2022-12-04T04:29:17;98735.38;;;-1.10;84.64
30618;BME280;17384;51.214;9.202;2022-12-04T04:31:52;98743.38;;;-1.10;84.50
30618;BME280;17384;51.214;9.202;2022-12-04T04:42:27;98743.25;;;-1.18;84.79
30618;BME280;17384;51.214;9.202;2022-12-04T04:45:08;98732.72;;;-1.19;84.96
30618;BME280;17384;51.214;9.202;2022-12-04T04:50:17;98743.19;;;-1.08;84.15
30618;BME280;17384;51.214;9.202;2022-12-04T04:52:50;98748.09;;;-1.04;84.26
30618;BME280;17384;51.214;9.202;2022-12-04T04:55:21;98742.19;;;-0.97;84.01
30618;BME280;17384;51.214;9.202;2022-12-04T04:57:47;98739.81;;;-1.00;84.07
30618;BME280;17384;51.214;9.202;2022-12-04T05:00:15;98738.44;;;-1.05;83.83
30618;BME280;17384;51.214;9.202;2022-12-04T05:02:42;98736.88;;;-1.07;84.34
30618;BME280;17384;51.214;9.202;2022-12-04T05:05:14;98753.41;;;-1.04;83.94
30618;BME280;17384;51.214;9.202;2022-12-04T05:07:40;98735.63;;;-1.03;83.66
30618;BME280;17384;51.214;9.202;2022-12-04T05:10:13;98737.16;;;-1.00;83.80
30618;BME280;17384;51.214;9.202;2022-12-04T05:12:38;98741.38;;;-1.08;84.28
30618;BME280;17384;51.214;9.202;2022-12-04T05:15:07;98742.34;;;-1.09;84.81
30618;BME280;17384;51.214;9.202;2022-12-04T05:17:34;98734.22;;;-1.07;84.69
30618;BME280;17384;51.214;9.202;2022-12-04T05:20:19;98746.03;;;-1.10;85.07
30618;BME280;17384;51.214;9.202;2022-12-04T05:22:45;98734.00;;;-1.14;85.18
30618;BME280;17384;51.214;9.202;2022-12-04T05:25:13;98745.19;;;-1.10;85.16
30618;BME280;17384;51.214;9.202;2022-12-04T05:27:48;98737.59;;;-1.05;84.80
30618;BME280;17384;51.214;9.202;2022-12-04T05:30:30;98742.53;;;-1.10;84.71
30618;BME280;17384;51.214;9.202;2022-12-04T05:32:56;98738.44;;;-1.05;84.69
30618;BME280;17384;51.214;9.202;2022-12-04T05:35:25;98742.50;;;-1.00;84.59
30618;BME280;17384;51.214;9.202;2022-12-04T05:37:50;98740.09;;;-0.94;84.01
30618;BME280;17384;51.214;9.202;2022-12-04T05:40:16;98741.44;;;-0.80;83.20
30618;BME280;17384;51.214;9.202;2022-12-04T05:42:42;98745.69;;;-0.87;83.89
30618;BME280;17384;51.214;9.202;2022-12-04T05:45:08;98739.75;;;-0.81;83.54
30618;BME280;17384;51.214;9.202;2022-12-04T05:47:52;98737.00;;;-0.89;83.66
30618;BME280;17384;51.214;9.202;2022-12-04T05:50:46;98738.97;;;-0.91;83.79
30618;BME280;17384;51.214;9.202;2022-12-04T05:53:18;98755.94;;;-0.92;83.91
30618;BME280;17384;51.214;9.202;2022-12-04T05:55:53;98749.63;;;-0.91;83.79
30618;BME280;17384;51.214;9.202;2022-12-04T05:58:19;98740.88;;;-0.74;83.60
30618;BME280;17384;51.214;9.202;2022-12-04T06:00:45;98750.97;;;-0.78;83.44
30618;BME280;17384;51.214;9.202;2022-12-04T06:03:11;98746.88;;;-0.72;83.29
30618;BME280;17384;51.214;9.202;2022-12-04T06:05:39;98756.56;;;-0.71;83.50
30618;BME280;17384;51.214;9.202;2022-12-04T06:09:10;98757.81;;;-0.75;83.47
30618;BME280;17384;51.214;9.202;2022-12-04T06:11:23;98761.19;;;-0.73;83.51
30618;BME280;17384;51.214;9.202;2022-12-04T06:13:49;98747.31;;;-0.77;83.76
30618;BME280;17384;51.214;9.202;2022-12-04T06:16:23;98736.94;;;-0.80;83.73
30618;BME280;17384;51.214;9.202;2022-12-04T06:22:05;98737.47;;;-0.66;83.48
30618;BME280;17384;51.214;9.202;2022-12-04T06:24:31;98746.72;;;-0.61;83.35
30618;BME280;17384;51.214;9.202;2022-12-04T06:26:59;98740.44;;;-0.70;83.41
30618;BME280;17384;51.214;9.202;2022-12-04T06:29:41;98738.19;;;-0.74;83.85
30618;BME280;17384;51.214;9.202;2022-12-04T06:32:09;98733.28;;;-0.69;84.04
30618;BME280;17384;51.214;9.202;2022-12-04T06:34:35;98734.13;;;-0.69;83.71
30618;BME280;17384;51.214;9.202;2022-12-04T06:37:13;98739.59;;;-0.70;83.52
30618;BME280;17384;51.214;9.202;2022-12-04T06:39:38;98737.91;;;-0.71;83.94
30618;BME280;17384;51.214;9.202;2022-12-04T06:42:04;98744.47;;;-0.56;83.39
30618;BME280;17384;51.214;9.202;2022-12-04T06:44:36;98749.78;;;-0.56;83.41
30618;BME280;17384;51.214;9.202;2022-12-04T06:47:02;98753.88;;;-0.61;83.69
30618;BME280;17384;51.214;9.202;2022-12-04T06:49:42;98749.97;;;-0.67;83.78
30618;BME280;17384;51.214;9.202;2022-12-04T06:52:10;98744.75;;;-0.59;83.88
30618;BME280;17384;51.214;9.202;2022-12-04T06:54:35;98763.84;;;-0.63;83.43
30618;BME280;17384;51.214;9.202;2022-12-04T06:57:01;98749.66;;;-0.64;83.87
30618;BME280;17384;51.214;9.202;2022-12-04T06:59:26;98748.81;;;-0.64;84.25
30618;BME280;17384;51.214;9.202;2022-12-04T07:01:52;98753.47;;;-0.39;83.05
30618;BME280;17384;51.214;9.202;2022-12-04T07:04:18;98743.28;;;-0.53;83.42
30618;BME280;17384;51.214;9.202;2022-12-04T07:06:43;98753.81;;;-0.52;83.63
30618;BME280;17384;51.214;9.202;2022-12-04T07:09:14;98749.53;;;-0.62;83.68
30618;BME280;17384;51.214;9.202;2022-12-04T07:11:41;98766.63;;;-0.55;83.63
30618;BME280;17384;51.214;9.202;2022-12-04T07:14:07;98758.78;;;-0.66;83.90
30618;BME280;17384;51.214;9.202;2022-12-04T07:16:33;98770.41;;;-0.58;84.03
30618;BME280;17384;51.214;9.202;2022-12-04T07:18:59;98760.72;;;-0.59;83.90
30618;BME280;17384;51.214;9.202;2022-12-04T07:21:26;98758.50;;;-0.63;84.30
30618;BME280;17384;51.214;9.202;2022-12-04T07:23:57;98772.47;;;-0.52;83.73
30618;BME280;17384;51.214;9.202;2022-12-04T07:26:24;98746.38;;;-0.48;84.12
30618;BME280;17384;51.214;9.202;2022-12-04T07:28:50;98737.31;;;-0.28;85.24
30618;BME280;17384;51.214;9.202;2022-12-04T07:31:19;98737.91;;;-0.34;83.96
30618;BME280;17384;51.214;9.202;2022-12-04T07:33:45;98754.72;;;-0.33;83.41
30618;BME280;17384;51.214;9.202;2022-12-04T07:36:16;98753.47;;;-0.39;83.56
30618;BME280;17384;51.214;9.202;2022-12-04T07:38:43;98758.22;;;-0.33;82.82
30618;BME280;17384;51.214;9.202;2022-12-04T07:41:10;98756.00;;;-0.38;83.44
30618;BME280;17384;51.214;9.202;2022-12-04T07:43:36;98751.94;;;-0.42;83.60
30618;BME280;17384;51.214;9.202;2022-12-04T07:46:05;98734.69;;;-0.38;83.37
30618;BME280;17384;51.214;9.202;2022-12-04T07:48:30;98732.13;;;-0.29;83.57
30618;BME280;17384;51.214;9.202;2022-12-04T07:51:15;98744.75;;;-0.31;83.26
30618;BME280;17384;51.214;9.202;2022-12-04T07:53:42;98746.63;;;-0.42;83.46
30618;BME280;17384;51.214;9.202;2022-12-04T07:56:09;98735.97;;;-0.42;83.59
30618;BME280;17384;51.214;9.202;2022-12-04T07:58:35;98738.19;;;-0.37;83.73
30618;BME280;17384;51.214;9.202;2022-12-04T08:01:05;98750.81;;;-0.39;83.41
30618;BME280;17384;51.214;9.202;2022-12-04T08:03:31;98747.44;;;-0.31;83.12
30618;BME280;17384;51.214;9.202;2022-12-04T08:06:01;98750.28;;;-0.43;83.73
30618;BME280;17384;51.214;9.202;2022-12-04T08:08:27;98749.63;;;-0.27;83.64
30618;BME280;17384;51.214;9.202;2022-12-04T08:10:53;98749.88;;;-0.20;82.43
30618;BME280;17384;51.214;9.202;2022-12-04T08:13:19;98748.59;;;-0.16;83.00
30618;BME280;17384;51.214;9.202;2022-12-04T08:15:44;98742.03;;;-0.22;82.68
30618;BME280;17384;51.214;9.202;2022-12-04T08:18:10;98760.28;;;-0.27;82.93
30618;BME280;17384;51.214;9.202;2022-12-04T08:20:36;98751.84;;;-0.22;82.97
30618;BME280;17384;51.214;9.202;2022-12-04T08:23:01;98743.69;;;-0.21;82.98
30618;BME280;17384;51.214;9.202;2022-12-04T08:25:27;98757.97;;;-0.12;82.63
30618;BME280;17384;51.214;9.202;2022-12-04T08:27:53;98742.97;;;-0.13;82.75
30618;BME280;17384;51.214;9.202;2022-12-04T08:30:18;98740.88;;;-0.19;82.96
30618;BME280;17384;51.214;9.202;2022-12-04T08:32:47;98734.28;;;-0.15;82.94
30618;BME280;17384;51.214;9.202;2022-12-04T08:35:13;98745.72;;;-0.05;83.07
30618;BME280;17384;51.214;9.202;2022-12-04T08:37:38;98733.38;;;-0.06;82.74
30618;BME280;17384;51.214;9.202;2022-12-04T08:40:04;98744.13;;;0.02;82.39
30618;BME280;17384;51.214;9.202;2022-12-04T08:42:30;98735.50;;;-0.10;82.57
30618;BME280;17384;51.214;9.202;2022-12-04T08:44:56;98746.72;;;-0.06;83.04
30618;BME280;17384;51.214;9.202;2022-12-04T08:47:22;98744.59;;;-0.03;82.49
30618;BME280;17384;51.214;9.202;2022-12-04T08:49:49;98735.97;;;0.04;82.09
30618;BME280;17384;51.214;9.202;2022-12-04T08:52:17;98734.44;;;0.01;82.68
30618;BME280;17384;51.214;9.202;2022-12-04T08:54:43;98737.09;;;0.01;82.57
30618;BME280;17384;51.214;9.202;2022-12-04T08:57:09;98737.09;;;0.01;82.50
30618;BME280;17384;51.214;9.202;2022-12-04T08:59:34;98743.81;;;0.05;82.75
30618;BME280;17384;51.214;9.202;2022-12-04T09:02:00;98731.25;;;-0.03;82.63
30618;BME280;17384;51.214;9.202;2022-12-04T09:04:25;98731.25;;;-0.03;82.98
30618;BME280;17384;51.214;9.202;2022-12-04T09:06:51;98744.50;;;0.07;83.08
30618;BME280;17384;51.214;9.202;2022-12-04T09:09:16;98741.25;;;0.13;82.76
30618;BME280;17384;51.214;9.202;2022-12-04T09:11:44;98735.06;;;0.13;82.90
30618;BME280;17384;51.214;9.202;2022-12-04T09:14:10;98742.19;;;0.22;82.83
30618;BME280;17384;51.214;9.202;2022-12-04T09:16:35;98734.09;;;0.31;81.95
30618;BME280;17384;51.214;9.202;2022-12-04T09:19:01;98738.22;;;0.26;82.19
30618;BME280;17384;51.214;9.202;2022-12-04T09:21:27;98745.69;;;0.22;82.30
30618;BME280;17384;51.214;9.202;2022-12-04T09:23:53;98741.88;;;0.25;82.90
30618;BME280;17384;51.214;9.202;2022-12-04T09:26:25;98747.41;;;0.31;82.44
30618;BME280;17384;51.214;9.202;2022-12-04T09:28:52;98747.75;;;0.46;81.88
30618;BME280;17384;51.214;9.202;2022-12-04T09:31:19;98759.84;;;0.41;81.92
30618;BME280;17384;51.214;9.202;2022-12-04T09:33:45;98759.03;;;0.40;82.15
30618;BME280;17384;51.214;9.202;2022-12-04T09:36:11;98757.88;;;0.43;81.57
30618;BME280;17384;51.214;9.202;2022-12-04T09:38:45;98748.19;;;0.24;82.11
30618;BME280;17384;51.214;9.202;2022-12-04T09:44:06;98760.41;;;0.44;81.31
30618;BME280;17384;51.214;9.202;2022-12-04T09:46:43;98754.81;;;0.38;81.55
30618;BME280;17384;51.214;9.202;2022-12-04T09:49:14;98764.22;;;0.42;81.68
30618;BME280;17384;51.214;9.202;2022-12-04T09:51:42;98761.53;;;0.42;81.40
30618;BME280;17384;51.214;9.202;2022-12-04T09:54:21;98749.25;;;0.31;81.62
30618;BME280;17384;51.214;9.202;2022-12-04T09:57:13;98748.25;;;0.32;82.00
30618;BME280;17384;51.214;9.202;2022-12-04T09:59:40;98740.78;;;0.36;81.88
30618;BME280;17384;51.214;9.202;2022-12-04T10:04:40;98736.63;;;0.51;81.77
30618;BME280;17384;51.214;9.202;2022-12-04T10:12:29;98727.09;;;0.48;81.56
30618;BME280;17384;51.214;9.202;2022-12-04T10:25:51;98716.69;;;0.27;82.70
30618;BME280;17384;51.214;9.202;2022-12-04T10:28:35;98726.75;;;0.33;82.74
30618;BME280;17384;51.214;9.202;2022-12-04T10:31:05;98728.22;;;0.46;82.07
30618;BME280;17384;51.214;9.202;2022-12-04T10:34:35;98726.16;;;0.40;82.13
30618;BME280;17384;51.214;9.202;2022-12-04T10:36:32;98730.97;;;0.54;81.25
30618;BME280;17384;51.214;9.202;2022-12-04T10:39:00;98725.25;;;0.49;81.99
30618;BME280;17384;51.214;9.202;2022-12-04T10:41:42;98727.00;;;0.40;82.17
30618;BME280;17384;51.214;9.202;2022-12-04T10:44:14;98734.63;;;0.35;82.82
30618;BME280;17384;51.214;9.202;2022-12-04T10:46:41;98729.22;;;0.45;82.51
30618;BME280;17384;51.214;9.202;2022-12-04T10:49:16;98728.66;;;0.59;82.20
30618;BME280;17384;51.214;9.202;2022-12-04T10:51:44;98716.69;;;0.63;82.03
30618;BME280;17384;51.214;9.202;2022-12-04T10:56:57;98719.06;;;0.48;82.82
30618;BME280;17384;51.214;9.202;2022-12-04T10:59:23;98709.69;;;0.44;82.58
30618;BME280;17384;51.214;9.202;2022-12-04T11:01:51;98697.56;;;0.50;82.59
30618;BME280;17384;51.214;9.202;2022-12-04T11:04:25;98703.25;;;0.55;82.07
30618;BME280;17384;51.214;9.202;2022-12-04T11:07:03;98701.38;;;0.47;82.49
30618;BME280;17384;51.214;9.202;2022-12-04T11:09:30;98696.66;;;0.41;82.75
30618;BME280;17384;51.214;9.202;2022-12-04T11:12:08;98703.59;;;0.52;82.60
30618;BME280;17384;51.214;9.202;2022-12-04T11:14:34;98704.31;;;0.62;82.39
30618;BME280;17384;51.214;9.202;2022-12-04T11:17:05;98696.84;;;0.65;81.74
30618;BME280;17384;51.214;9.202;2022-12-04T11:19:33;98694.56;;;0.71;81.62
30618;BME280;17384;51.214;9.202;2022-12-04T11:22:13;98686.09;;;0.75;81.59
30618;BME280;17384;51.214;9.202;2022-12-04T11:24:40;98695.69;;;0.68;81.78
30618;BME280;17384;51.214;9.202;2022-12-04T11:27:16;98681.97;;;0.63;82.57
30618;BME280;17384;51.214;9.202;2022-12-04T11:29:44;98690.75;;;0.73;82.41
30618;BME280;17384;51.214;9.202;2022-12-04T11:32:22;98690.59;;;0.75;82.29
30618;BME280;17384;51.214;9.202;2022-12-04T11:34:49;98686.94;;;0.76;82.35
30618;BME280;17384;51.214;9.202;2022-12-04T11:37:23;98695.41;;;0.97;81.71
30618;BME280;17384;51.214;9.202;2022-12-04T11:39:49;98675.56;;;0.74;81.74
30618;BME280;17384;51.214;9.202;2022-12-04T11:42:18;98679.53;;;0.70;82.50
30618;BME280;17384;51.214;9.202;2022-12-04T11:44:53;98659.63;;;0.64;82.35
30618;BME280;17384;51.214;9.202;2022-12-04T11:47:20;98666.91;;;0.54;83.13
30618;BME280;17384;51.214;9.202;2022-12-04T11:49:56;98665.00;;;0.46;83.38
30618;BME280;17384;51.214;9.202;2022-12-04T11:55:12;98669.91;;;0.51;83.59
30618;BME280;17384;51.214;9.202;2022-12-04T11:57:50;98661.31;;;0.65;83.10
30618;BME280;17384;51.214;9.202;2022-12-04T12:00:22;98669.06;;;0.76;82.19
30618;BME280;17384;51.214;9.202;2022-12-04T12:13:51;98659.63;;;0.90;82.39
30618;BME280;17384;51.214;9.202;2022-12-04T12:16:45;98647.59;;;0.86;82.21
30618;BME280;17384;51.214;9.202;2022-12-04T12:22:03;98654.72;;;0.51;83.31
30618;BME280;17384;51.214;9.202;2022-12-04T12:24:40;98641.53;;;0.50;83.55
30618;BME280;17384;51.214;9.202;2022-12-04T12:30:07;98639.72;;;0.58;83.38
30618;BME280;17384;51.214;9.202;2022-12-04T12:32:47;98637.03;;;0.76;82.08
30618;BME280;17384;51.214;9.202;2022-12-04T12:35:22;98631.31;;;0.71;82.42
30618;BME280;17384;51.214;9.202;2022-12-04T12:37:58;98639.50;;;0.70;82.89
30618;BME280;17384;51.214;9.202;2022-12-04T12:40:35;98627.75;;;0.62;82.88
30618;BME280;17384;51.214;9.202;2022-12-04T12:45:45;98625.41;;;0.59;82.94
30618;BME280;17384;51.214;9.202;2022-12-04T12:48:44;98614.09;;;0.65;83.11
30618;BME280;17384;51.214;9.202;2022-12-04T12:54:00;98606.38;;;0.54;83.70
30618;BME280;17384;51.214;9.202;2022-12-04T12:56:36;98610.28;;;0.42;84.68
30618;BME280;17384;51.214;9.202;2022-12-04T12:59:05;98590.97;;;0.48;84.50
30618;BME280;17384;51.214;9.202;2022-12-04T13:06:52;98578.88;;;0.62;84.11
30618;BME280;17384;51.214;9.202;2022-12-04T13:09:31;98587.09;;;0.68;84.03
30618;BME280;17384;51.214;9.202;2022-12-04T13:12:01;98586.56;;;0.65;84.01
30618;BME280;17384;51.214;9.202;2022-12-04T13:14:28;98587.56;;;0.64;83.68
30618;BME280;17384;51.214;9.202;2022-12-04T13:17:00;98587.09;;;0.43;84.78
30618;BME280;17384;51.214;9.202;2022-12-04T13:19:33;98591.50;;;0.52;84.72
30618;BME280;17384;51.214;9.202;2022-12-04T13:30:24;98593.19;;;0.53;84.13
30618;BME280;17384;51.214;9.202;2022-12-04T13:41:14;98601.19;;;0.53;84.51
30618;BME280;17384;51.214;9.202;2022-12-04T13:46:30;98604.88;;;0.60;84.04
30618;BME280;17384;51.214;9.202;2022-12-04T13:51:43;98603.41;;;0.40;84.88
30618;BME280;17384;51.214;9.202;2022-12-04T13:56:39;98601.53;;;0.58;84.29
30618;BME280;17384;51.214;9.202;2022-12-04T14:01:59;98619.81;;;0.45;84.71
30618;BME280;17384;51.214;9.202;2022-12-04T14:04:45;98622.78;;;0.42;84.80
30618;BME280;17384;51.214;9.202;2022-12-04T14:07:32;98605.00;;;0.50;84.63
30618;BME280;17384;51.214;9.202;2022-12-04T14:12:51;98624.09;;;0.38;85.19
30618;BME280;17384;51.214;9.202;2022-12-04T14:15:26;98619.75;;;0.37;85.30
30618;BME280;17384;51.214;9.202;2022-12-04T14:18:04;98620.50;;;0.47;84.75
30618;BME280;17384;51.214;9.202;2022-12-04T14:20:32;98613.94;;;0.41;85.17
30618;BME280;17384;51.214;9.202;2022-12-04T14:25:39;98602.28;;;0.42;85.27
30618;BME280;17384;51.214;9.202;2022-12-04T14:28:20;98604.03;;;0.33;85.36
30618;BME280;17384;51.214;9.202;2022-12-04T14:31:00;98603.72;;;0.37;85.59
30618;BME280;17384;51.214;9.202;2022-12-04T14:33:29;98604.41;;;0.39;85.52
30618;BME280;17384;51.214;9.202;2022-12-04T14:36:07;98612.41;;;0.39;85.55
30618;BME280;17384;51.214;9.202;2022-12-04T14:38:34;98593.59;;;0.40;85.73
30618;BME280;17384;51.214;9.202;2022-12-04T14:41:00;98586.94;;;0.44;85.44
30618;BME280;17384;51.214;9.202;2022-12-04T14:43:40;98584.28;;;0.44;85.36
30618;BME280;17384;51.214;9.202;2022-12-04T14:46:40;98596.41;;;0.39;85.60
30618;BME280;17384;51.214;9.202;2022-12-04T14:51:41;98586.88;;;0.36;85.70
30618;BME280;17384;51.214;9.202;2022-12-04T14:54:18;98599.91;;;0.39;85.53
30618;BME280;17384;51.214;9.202;2022-12-04T14:57:00;98602.44;;;0.41;85.44
30618;BME280;17384;51.214;9.202;2022-12-04T14:59:42;98607.59;;;0.42;85.28
30618;BME280;17384;51.214;9.202;2022-12-04T15:02:38;98595.94;;;0.43;85.37
30618;BME280;17384;51.214;9.202;2022-12-04T15:05:19;98601.44;;;0.42;85.65
30618;BME280;17384;51.214;9.202;2022-12-04T15:07:48;98601.22;;;0.35;85.92
30618;BME280;17384;51.214;9.202;2022-12-04T15:10:27;98602.59;;;0.39;85.90
30618;BME280;17384;51.214;9.202;2022-12-04T15:13:12;98593.38;;;0.33;85.98
30618;BME280;17384;51.214;9.202;2022-12-04T15:15:48;98603.25;;;0.41;85.86
30618;BME280;17384;51.214;9.202;2022-12-04T15:18:16;98602.66;;;0.29;86.20
30618;BME280;17384;51.214;9.202;2022-12-04T15:23:21;98597.19;;;0.31;86.23
30618;BME280;17384;51.214;9.202;2022-12-04T15:25:56;98612.41;;;0.39;86.14
30618;BME280;17384;51.214;9.202;2022-12-04T15:28:25;98603.41;;;0.40;86.33
30618;BME280;17384;51.214;9.202;2022-12-04T15:30:54;98597.16;;;0.49;85.96
30618;BME280;17384;51.214;9.202;2022-12-04T15:33:27;98605.56;;;0.36;86.03
30618;BME280;17384;51.214;9.202;2022-12-04T15:35:58;98596.25;;;0.40;86.10
30618;BME280;17384;51.214;9.202;2022-12-04T15:38:25;98603.41;;;0.40;86.02
30618;BME280;17384;51.214;9.202;2022-12-04T15:40:58;98600.69;;;0.31;86.55
30618;BME280;17384;51.214;9.202;2022-12-04T15:43:42;98588.03;;;0.33;86.50
30618;BME280;17384;51.214;9.202;2022-12-04T15:46:12;98592.53;;;0.33;86.69